sensor_id;sensor_type;location;lat;lon;timestamp;P1;durP1;ratioP1;P2;durP2;ratioP2
49183;SDS011;35021;49.214;12.270;2022-07-29T00:02:24;2.08;;;1.30;;
49183;SDS011;35021;49.214;12.270;2022-07-29T00:04:52;3.58;;;1.40;;
49183;SDS011;35021;49.214;12.270;2022-07-29T00:07:19;2.67;;;1.40;;
49183;SDS011;35021;49.214;12.270;2022-07-29T00:09:46;1.50;;;1.40;;
49183;SDS011;35021;49.214;12.270;2022-07-29T00:12:18;2.35;;;1.83;;
49183;SDS011;35021;49.214;12.270;2022-07-29T00:14:55;1.98;;;1.40;;
49183;SDS011;35021;49.214;12.270;2022-07-29T00:17:23;2.60;;;1.48;;
49183;SDS011;35021;49.214;12.270;2022-07-29T00:19:50;2.17;;;1.38;;
49183;SDS011;35021;49.214;12.270;2022-07-29T00:22:18;1.70;;;1.30;;
49183;SDS011;35021;49.214;12.270;2022-07-29T00:24:49;1.48;;;1.20;;
49183;SDS011;35021;49.214;12.270;2022-07-29T00:27:16;2.47;;;1.40;;
49183;SDS011;35021;49.214;12.270;2022-07-29T00:29:43;3.03;;;1.60;;
49183;SDS011;35021;49.214;12.270;2022-07-29T00:32:10;1.50;;;1.30;;
49183;SDS011;35021;49.214;12.270;2022-07-29T00:34:37;2.58;;;1.92;;
49183;SDS011;35021;49.214;12.270;2022-07-29T00:37:22;2.40;;;1.65;;
49183;SDS011;35021;49.214;12.270;2022-07-29T00:39:49;1.60;;;1.27;;
49183;SDS011;35021;49.214;12.270;2022-07-29T00:42:16;2.13;;;1.38;;
49183;SDS011;35021;49.214;12.270;2022-07-29T00:44:43;1.40;;;1.25;;
49183;SDS011;35021;49.214;12.270;2022-07-29T00:47:11;2.80;;;1.58;;
49183;SDS011;35021;49.214;12.270;2022-07-29T00:49:41;2.83;;;1.33;;
49183;SDS011;35021;49.214;12.270;2022-07-29T00:52:09;3.17;;;1.60;;
49183;SDS011;35021;49.214;12.270;2022-07-29T00:54:37;1.85;;;1.60;;
49183;SDS011;35021;49.214;12.270;2022-07-29T00:57:10;2.05;;;1.70;;
49183;SDS011;35021;49.214;12.270;2022-07-29T00:59:37;1.95;;;1.38;;
49183;SDS011;35021;49.214;12.270;2022-07-29T01:02:04;1.75;;;1.65;;
49183;SDS011;35021;49.214;12.270;2022-07-29T01:04:31;3.42;;;1.40;;
49183;SDS011;35021;49.214;12.270;2022-07-29T01:07:00;2.63;;;1.30;;
49183;SDS011;35021;49.214;12.270;2022-07-29T01:09:28;2.30;;;1.60;;
49183;SDS011;35021;49.214;12.270;2022-07-29T01:12:13;1.60;;;1.40;;
49183;SDS011;35021;49.214;12.270;2022-07-29T01:14:44;1.60;;;1.48;;
49183;SDS011;35021;49.214;12.270;2022-07-29T01:17:26;3.13;;;1.40;;
49183;SDS011;35021;49.214;12.270;2022-07-29T01:34:31;2.63;;;1.80;;
49183;SDS011;35021;49.214;12.270;2022-07-29T01:37:08;2.85;;;1.50;;
49183;SDS011;35021;49.214;12.270;2022-07-29T01:39:40;1.30;;;1.08;;
49183;SDS011;35021;49.214;12.270;2022-07-29T01:42:14;1.90;;;1.40;;
49183;SDS011;35021;49.214;12.270;2022-07-29T01:45:00;1.58;;;1.23;;
49183;SDS011;35021;49.214;12.270;2022-07-29T01:47:38;1.85;;;1.50;;
49183;SDS011;35021;49.214;12.270;2022-07-29T01:50:10;1.60;;;1.40;;
49183;SDS011;35021;49.214;12.270;2022-07-29T01:52:52;3.22;;;1.65;;
49183;SDS011;35021;49.214;12.270;2022-07-29T01:55:29;2.35;;;1.48;;
49183;SDS011;35021;49.214;12.270;2022-07-29T01:58:00;1.63;;;1.45;;
49183;SDS011;35021;49.214;12.270;2022-07-29T02:00:30;1.83;;;1.40;;
49183;SDS011;35021;49.214;12.270;2022-07-29T02:03:00;2.20;;;1.60;;
49183;SDS011;35021;49.214;12.270;2022-07-29T02:05:30;1.92;;;1.50;;
49183;SDS011;35021;49.214;12.270;2022-07-29T02:08:00;4.03;;;1.70;;
49183;SDS011;35021;49.214;12.270;2022-07-29T02:10:29;1.65;;;1.35;;
49183;SDS011;35021;49.214;12.270;2022-07-29T02:12:58;2.72;;;1.50;;
49183;SDS011;35021;49.214;12.270;2022-07-29T02:15:28;2.65;;;1.85;;
49183;SDS011;35021;49.214;12.270;2022-07-29T02:17:59;1.73;;;1.40;;
49183;SDS011;35021;49.214;12.270;2022-07-29T02:20:29;1.92;;;1.40;;
49183;SDS011;35021;49.214;12.270;2022-07-29T02:22:57;2.25;;;1.40;;
49183;SDS011;35021;49.214;12.270;2022-07-29T02:25:27;2.17;;;1.48;;
49183;SDS011;35021;49.214;12.270;2022-07-29T02:28:03;3.10;;;1.40;;
49183;SDS011;35021;49.214;12.270;2022-07-29T02:30:32;2.10;;;1.40;;
49183;SDS011;35021;49.214;12.270;2022-07-29T02:33:02;2.42;;;1.48;;
49183;SDS011;35021;49.214;12.270;2022-07-29T02:35:30;1.80;;;1.48;;
49183;SDS011;35021;49.214;12.270;2022-07-29T02:38:00;3.03;;;1.55;;
49183;SDS011;35021;49.214;12.270;2022-07-29T02:40:47;1.98;;;1.48;;
49183;SDS011;35021;49.214;12.270;2022-07-29T02:43:16;1.60;;;1.45;;
49183;SDS011;35021;49.214;12.270;2022-07-29T02:45:44;3.38;;;2.10;;
49183;SDS011;35021;49.214;12.270;2022-07-29T02:48:17;2.67;;;1.80;;
49183;SDS011;35021;49.214;12.270;2022-07-29T02:50:49;1.65;;;1.33;;
49183;SDS011;35021;49.214;12.270;2022-07-29T02:53:22;1.75;;;1.42;;
49183;SDS011;35021;49.214;12.270;2022-07-29T02:55:59;2.47;;;1.50;;
49183;SDS011;35021;49.214;12.270;2022-07-29T02:58:38;2.70;;;1.10;;
49183;SDS011;35021;49.214;12.270;2022-07-29T03:01:17;1.88;;;1.67;;
49183;SDS011;35021;49.214;12.270;2022-07-29T03:03:52;2.10;;;1.52;;
49183;SDS011;35021;49.214;12.270;2022-07-29T03:06:20;2.90;;;1.50;;
49183;SDS011;35021;49.214;12.270;2022-07-29T03:09:04;1.75;;;1.38;;
49183;SDS011;35021;49.214;12.270;2022-07-29T03:11:38;2.63;;;1.67;;
49183;SDS011;35021;49.214;12.270;2022-07-29T03:14:16;2.47;;;1.60;;
49183;SDS011;35021;49.214;12.270;2022-07-29T03:16:45;6.05;;;1.90;;
49183;SDS011;35021;49.214;12.270;2022-07-29T03:19:12;4.13;;;2.03;;
49183;SDS011;35021;49.214;12.270;2022-07-29T03:21:40;3.58;;;1.50;;
49183;SDS011;35021;49.214;12.270;2022-07-29T03:24:06;2.80;;;1.52;;
49183;SDS011;35021;49.214;12.270;2022-07-29T03:26:36;2.95;;;1.65;;
49183;SDS011;35021;49.214;12.270;2022-07-29T03:29:03;1.77;;;1.55;;
49183;SDS011;35021;49.214;12.270;2022-07-29T03:31:31;1.77;;;1.45;;
49183;SDS011;35021;49.214;12.270;2022-07-29T03:33:58;2.38;;;1.50;;
49183;SDS011;35021;49.214;12.270;2022-07-29T03:36:25;2.95;;;1.80;;
49183;SDS011;35021;49.214;12.270;2022-07-29T03:38:52;1.60;;;1.45;;
49183;SDS011;35021;49.214;12.270;2022-07-29T03:41:20;2.00;;;1.40;;
49183;SDS011;35021;49.214;12.270;2022-07-29T03:43:49;2.35;;;1.50;;
49183;SDS011;35021;49.214;12.270;2022-07-29T03:46:19;1.70;;;1.42;;
49183;SDS011;35021;49.214;12.270;2022-07-29T03:48:49;2.17;;;1.70;;
49183;SDS011;35021;49.214;12.270;2022-07-29T03:51:19;2.28;;;1.80;;
49183;SDS011;35021;49.214;12.270;2022-07-29T03:54:00;3.63;;;1.65;;
49183;SDS011;35021;49.214;12.270;2022-07-29T03:56:40;2.40;;;1.65;;
49183;SDS011;35021;49.214;12.270;2022-07-29T03:59:08;3.03;;;1.55;;
49183;SDS011;35021;49.214;12.270;2022-07-29T04:01:36;2.05;;;1.50;;
49183;SDS011;35021;49.214;12.270;2022-07-29T04:04:04;2.13;;;1.60;;
49183;SDS011;35021;49.214;12.270;2022-07-29T04:06:42;2.72;;;1.60;;
49183;SDS011;35021;49.214;12.270;2022-07-29T04:09:11;3.22;;;1.60;;
49183;SDS011;35021;49.214;12.270;2022-07-29T04:11:38;3.35;;;1.50;;
49183;SDS011;35021;49.214;12.270;2022-07-29T04:14:26;3.03;;;1.70;;
49183;SDS011;35021;49.214;12.270;2022-07-29T04:16:53;2.10;;;1.70;;
49183;SDS011;35021;49.214;12.270;2022-07-29T04:19:20;1.90;;;1.67;;
49183;SDS011;35021;49.214;12.270;2022-07-29T04:21:47;1.70;;;1.33;;
49183;SDS011;35021;49.214;12.270;2022-07-29T04:24:14;2.50;;;1.90;;
49183;SDS011;35021;49.214;12.270;2022-07-29T04:26:41;2.55;;;1.73;;
49183;SDS011;35021;49.214;12.270;2022-07-29T04:29:08;2.75;;;1.85;;
49183;SDS011;35021;49.214;12.270;2022-07-29T04:31:35;1.77;;;1.48;;
49183;SDS011;35021;49.214;12.270;2022-07-29T04:34:02;3.08;;;1.88;;
49183;SDS011;35021;49.214;12.270;2022-07-29T04:36:28;1.60;;;1.40;;
49183;SDS011;35021;49.214;12.270;2022-07-29T04:38:55;2.78;;;1.80;;
49183;SDS011;35021;49.214;12.270;2022-07-29T04:41:22;3.80;;;1.45;;
49183;SDS011;35021;49.214;12.270;2022-07-29T04:43:58;2.50;;;1.65;;
49183;SDS011;35021;49.214;12.270;2022-07-29T04:46:32;2.40;;;1.67;;
49183;SDS011;35021;49.214;12.270;2022-07-29T04:49:00;2.58;;;1.80;;
49183;SDS011;35021;49.214;12.270;2022-07-29T04:51:27;2.00;;;1.63;;
49183;SDS011;35021;49.214;12.270;2022-07-29T04:53:54;4.50;;;1.80;;
49183;SDS011;35021;49.214;12.270;2022-07-29T04:56:21;2.70;;;2.05;;
49183;SDS011;35021;49.214;12.270;2022-07-29T04:58:48;2.67;;;1.73;;
49183;SDS011;35021;49.214;12.270;2022-07-29T05:01:15;2.33;;;1.70;;
49183;SDS011;35021;49.214;12.270;2022-07-29T05:03:42;2.80;;;2.13;;
49183;SDS011;35021;49.214;12.270;2022-07-29T05:06:09;3.97;;;1.85;;
49183;SDS011;35021;49.214;12.270;2022-07-29T05:08:36;3.10;;;2.00;;
49183;SDS011;35021;49.214;12.270;2022-07-29T05:11:03;2.30;;;1.65;;
49183;SDS011;35021;49.214;12.270;2022-07-29T05:13:38;2.10;;;1.80;;
49183;SDS011;35021;49.214;12.270;2022-07-29T05:16:12;1.80;;;1.60;;
49183;SDS011;35021;49.214;12.270;2022-07-29T05:18:41;2.47;;;1.65;;
49183;SDS011;35021;49.214;12.270;2022-07-29T05:21:08;3.28;;;1.60;;
49183;SDS011;35021;49.214;12.270;2022-07-29T05:23:35;3.28;;;1.58;;
49183;SDS011;35021;49.214;12.270;2022-07-29T05:26:02;3.05;;;1.90;;
49183;SDS011;35021;49.214;12.270;2022-07-29T05:28:30;1.90;;;1.70;;
49183;SDS011;35021;49.214;12.270;2022-07-29T05:31:00;2.65;;;1.63;;
49183;SDS011;35021;49.214;12.270;2022-07-29T05:33:27;3.05;;;1.70;;
49183;SDS011;35021;49.214;12.270;2022-07-29T05:36:05;3.92;;;1.70;;
49183;SDS011;35021;49.214;12.270;2022-07-29T05:38:33;4.57;;;1.83;;
49183;SDS011;35021;49.214;12.270;2022-07-29T05:41:02;2.67;;;1.83;;
49183;SDS011;35021;49.214;12.270;2022-07-29T05:43:29;2.45;;;1.90;;
49183;SDS011;35021;49.214;12.270;2022-07-29T05:45:56;2.40;;;1.73;;
49183;SDS011;35021;49.214;12.270;2022-07-29T05:48:24;2.60;;;1.95;;
49183;SDS011;35021;49.214;12.270;2022-07-29T05:50:51;2.20;;;1.60;;
49183;SDS011;35021;49.214;12.270;2022-07-29T05:53:18;2.38;;;1.90;;
49183;SDS011;35021;49.214;12.270;2022-07-29T05:55:46;2.90;;;1.58;;
49183;SDS011;35021;49.214;12.270;2022-07-29T05:58:14;2.33;;;1.42;;
49183;SDS011;35021;49.214;12.270;2022-07-29T06:00:41;2.33;;;1.65;;
49183;SDS011;35021;49.214;12.270;2022-07-29T06:03:08;2.63;;;1.58;;
49183;SDS011;35021;49.214;12.270;2022-07-29T06:05:35;2.95;;;1.50;;
49183;SDS011;35021;49.214;12.270;2022-07-29T06:08:01;2.47;;;1.77;;
49183;SDS011;35021;49.214;12.270;2022-07-29T06:10:29;4.70;;;1.85;;
49183;SDS011;35021;49.214;12.270;2022-07-29T06:12:55;2.38;;;1.90;;
49183;SDS011;35021;49.214;12.270;2022-07-29T06:15:22;2.60;;;1.80;;
49183;SDS011;35021;49.214;12.270;2022-07-29T06:17:49;2.67;;;1.90;;
49183;SDS011;35021;49.214;12.270;2022-07-29T06:20:26;3.50;;;2.03;;
49183;SDS011;35021;49.214;12.270;2022-07-29T06:22:57;3.67;;;1.60;;
49183;SDS011;35021;49.214;12.270;2022-07-29T06:25:25;2.47;;;1.80;;
49183;SDS011;35021;49.214;12.270;2022-07-29T06:27:55;2.83;;;1.63;;
49183;SDS011;35021;49.214;12.270;2022-07-29T06:30:22;2.20;;;1.60;;
49183;SDS011;35021;49.214;12.270;2022-07-29T06:32:49;2.20;;;1.58;;
49183;SDS011;35021;49.214;12.270;2022-07-29T06:35:16;2.78;;;1.90;;
49183;SDS011;35021;49.214;12.270;2022-07-29T06:38:03;2.83;;;1.65;;
49183;SDS011;35021;49.214;12.270;2022-07-29T06:40:50;2.55;;;1.60;;
49183;SDS011;35021;49.214;12.270;2022-07-29T06:43:37;3.75;;;1.73;;
49183;SDS011;35021;49.214;12.270;2022-07-29T06:46:20;2.20;;;1.90;;
49183;SDS011;35021;49.214;12.270;2022-07-29T06:48:48;2.47;;;1.50;;
49183;SDS011;35021;49.214;12.270;2022-07-29T06:51:15;3.15;;;1.50;;
49183;SDS011;35021;49.214;12.270;2022-07-29T06:53:49;1.55;;;1.45;;
49183;SDS011;35021;49.214;12.270;2022-07-29T06:56:25;2.22;;;1.55;;
49183;SDS011;35021;49.214;12.270;2022-07-29T06:58:52;3.95;;;1.80;;
49183;SDS011;35021;49.214;12.270;2022-07-29T07:01:19;2.47;;;1.70;;
49183;SDS011;35021;49.214;12.270;2022-07-29T07:03:47;3.38;;;2.25;;
49183;SDS011;35021;49.214;12.270;2022-07-29T07:06:14;2.30;;;1.70;;
49183;SDS011;35021;49.214;12.270;2022-07-29T07:08:41;2.70;;;1.70;;
49183;SDS011;35021;49.214;12.270;2022-07-29T07:11:08;3.67;;;1.92;;
49183;SDS011;35021;49.214;12.270;2022-07-29T07:13:35;1.92;;;1.70;;
49183;SDS011;35021;49.214;12.270;2022-07-29T07:16:02;2.30;;;1.63;;
49183;SDS011;35021;49.214;12.270;2022-07-29T07:18:30;3.65;;;1.80;;
49183;SDS011;35021;49.214;12.270;2022-07-29T07:20:57;1.83;;;1.60;;
49183;SDS011;35021;49.214;12.270;2022-07-29T07:23:24;5.25;;;1.73;;
49183;SDS011;35021;49.214;12.270;2022-07-29T07:25:51;3.15;;;1.67;;
49183;SDS011;35021;49.214;12.270;2022-07-29T07:28:18;2.97;;;1.50;;
49183;SDS011;35021;49.214;12.270;2022-07-29T07:30:50;2.47;;;1.83;;
49183;SDS011;35021;49.214;12.270;2022-07-29T07:33:18;2.38;;;1.67;;
49183;SDS011;35021;49.214;12.270;2022-07-29T07:35:45;3.13;;;1.80;;
49183;SDS011;35021;49.214;12.270;2022-07-29T07:38:12;2.03;;;1.60;;
49183;SDS011;35021;49.214;12.270;2022-07-29T07:40:40;2.30;;;1.70;;
49183;SDS011;35021;49.214;12.270;2022-07-29T07:43:15;1.70;;;1.50;;
49183;SDS011;35021;49.214;12.270;2022-07-29T07:45:41;2.35;;;1.50;;
49183;SDS011;35021;49.214;12.270;2022-07-29T07:48:08;2.53;;;1.65;;
49183;SDS011;35021;49.214;12.270;2022-07-29T07:50:36;1.77;;;1.48;;
49183;SDS011;35021;49.214;12.270;2022-07-29T07:53:03;2.15;;;1.60;;
49183;SDS011;35021;49.214;12.270;2022-07-29T07:55:30;2.53;;;1.70;;
49183;SDS011;35021;49.214;12.270;2022-07-29T07:58:17;2.70;;;1.42;;
49183;SDS011;35021;49.214;12.270;2022-07-29T08:00:44;2.35;;;1.60;;
49183;SDS011;35021;49.214;12.270;2022-07-29T08:03:11;2.13;;;1.58;;
49183;SDS011;35021;49.214;12.270;2022-07-29T08:05:42;2.15;;;1.55;;
49183;SDS011;35021;49.214;12.270;2022-07-29T08:08:10;2.13;;;1.60;;
49183;SDS011;35021;49.214;12.270;2022-07-29T08:10:36;2.78;;;1.90;;
49183;SDS011;35021;49.214;12.270;2022-07-29T08:13:19;2.22;;;1.60;;
49183;SDS011;35021;49.214;12.270;2022-07-29T08:15:47;4.45;;;1.90;;
49183;SDS011;35021;49.214;12.270;2022-07-29T08:18:23;3.17;;;1.48;;
49183;SDS011;35021;49.214;12.270;2022-07-29T08:20:55;3.15;;;1.60;;
49183;SDS011;35021;49.214;12.270;2022-07-29T08:23:22;2.22;;;1.73;;
49183;SDS011;35021;49.214;12.270;2022-07-29T08:25:50;2.42;;;1.60;;
49183;SDS011;35021;49.214;12.270;2022-07-29T08:28:20;3.30;;;1.90;;
49183;SDS011;35021;49.214;12.270;2022-07-29T08:30:51;2.55;;;1.77;;
49183;SDS011;35021;49.214;12.270;2022-07-29T08:33:18;4.93;;;2.30;;
49183;SDS011;35021;49.214;12.270;2022-07-29T08:35:45;3.45;;;2.00;;
49183;SDS011;35021;49.214;12.270;2022-07-29T08:38:11;4.20;;;2.13;;
49183;SDS011;35021;49.214;12.270;2022-07-29T08:40:39;4.93;;;2.22;;
49183;SDS011;35021;49.214;12.270;2022-07-29T08:43:06;4.50;;;2.20;;
49183;SDS011;35021;49.214;12.270;2022-07-29T08:45:37;3.72;;;2.25;;
49183;SDS011;35021;49.214;12.270;2022-07-29T08:48:14;3.97;;;1.92;;
49183;SDS011;35021;49.214;12.270;2022-07-29T08:50:43;5.47;;;1.98;;
49183;SDS011;35021;49.214;12.270;2022-07-29T08:53:13;4.45;;;2.45;;
49183;SDS011;35021;49.214;12.270;2022-07-29T08:55:42;2.90;;;2.10;;
49183;SDS011;35021;49.214;12.270;2022-07-29T08:58:10;3.50;;;2.33;;
49183;SDS011;35021;49.214;12.270;2022-07-29T09:00:42;4.32;;;2.30;;
49183;SDS011;35021;49.214;12.270;2022-07-29T09:03:22;5.15;;;2.20;;
49183;SDS011;35021;49.214;12.270;2022-07-29T09:05:51;5.63;;;2.20;;
49183;SDS011;35021;49.214;12.270;2022-07-29T09:08:18;4.28;;;2.22;;
49183;SDS011;35021;49.214;12.270;2022-07-29T09:10:47;4.13;;;2.30;;
49183;SDS011;35021;49.214;12.270;2022-07-29T09:13:14;3.58;;;2.58;;
49183;SDS011;35021;49.214;12.270;2022-07-29T09:15:41;5.18;;;2.72;;
49183;SDS011;35021;49.214;12.270;2022-07-29T09:18:08;2.80;;;2.00;;
49183;SDS011;35021;49.214;12.270;2022-07-29T09:20:54;3.95;;;2.35;;
49183;SDS011;35021;49.214;12.270;2022-07-29T09:23:40;5.35;;;2.50;;
49183;SDS011;35021;49.214;12.270;2022-07-29T09:26:07;3.80;;;2.60;;
49183;SDS011;35021;49.214;12.270;2022-07-29T09:28:34;3.22;;;2.40;;
49183;SDS011;35021;49.214;12.270;2022-07-29T09:31:09;3.72;;;2.70;;
49183;SDS011;35021;49.214;12.270;2022-07-29T09:33:36;2.65;;;2.10;;
49183;SDS011;35021;49.214;12.270;2022-07-29T09:36:08;3.30;;;2.28;;
49183;SDS011;35021;49.214;12.270;2022-07-29T09:38:37;2.58;;;2.30;;
49183;SDS011;35021;49.214;12.270;2022-07-29T09:41:04;5.65;;;2.53;;
49183;SDS011;35021;49.214;12.270;2022-07-29T09:43:34;2.95;;;2.40;;
49183;SDS011;35021;49.214;12.270;2022-07-29T09:46:10;3.28;;;2.55;;
49183;SDS011;35021;49.214;12.270;2022-07-29T09:48:38;3.58;;;2.47;;
49183;SDS011;35021;49.214;12.270;2022-07-29T09:51:05;3.70;;;2.90;;
49183;SDS011;35021;49.214;12.270;2022-07-29T09:53:52;3.33;;;2.63;;
49183;SDS011;35021;49.214;12.270;2022-07-29T09:56:19;3.72;;;2.72;;
49183;SDS011;35021;49.214;12.270;2022-07-29T09:58:45;3.30;;;2.92;;
49183;SDS011;35021;49.214;12.270;2022-07-29T10:01:12;3.30;;;3.00;;
49183;SDS011;35021;49.214;12.270;2022-07-29T10:03:52;5.13;;;3.20;;
49183;SDS011;35021;49.214;12.270;2022-07-29T10:06:19;4.20;;;3.45;;
49183;SDS011;35021;49.214;12.270;2022-07-29T10:08:46;4.85;;;2.80;;
49183;SDS011;35021;49.214;12.270;2022-07-29T10:11:16;3.58;;;3.13;;
49183;SDS011;35021;49.214;12.270;2022-07-29T10:13:45;3.58;;;2.70;;
49183;SDS011;35021;49.214;12.270;2022-07-29T10:16:14;3.00;;;2.65;;
49183;SDS011;35021;49.214;12.270;2022-07-29T10:18:42;4.35;;;2.72;;
49183;SDS011;35021;49.214;12.270;2022-07-29T10:21:10;3.35;;;2.97;;
49183;SDS011;35021;49.214;12.270;2022-07-29T10:23:57;5.13;;;3.15;;
49183;SDS011;35021;49.214;12.270;2022-07-29T10:26:27;3.67;;;2.97;;
49183;SDS011;35021;49.214;12.270;2022-07-29T10:28:55;3.42;;;2.95;;
49183;SDS011;35021;49.214;12.270;2022-07-29T10:31:26;3.60;;;3.20;;
49183;SDS011;35021;49.214;12.270;2022-07-29T10:42:18;3.05;;;2.78;;
49183;SDS011;35021;49.214;12.270;2022-07-29T10:44:59;4.93;;;2.92;;
49183;SDS011;35021;49.214;12.270;2022-07-29T10:47:30;3.85;;;3.15;;
49183;SDS011;35021;49.214;12.270;2022-07-29T10:50:01;3.03;;;2.72;;
49183;SDS011;35021;49.214;12.270;2022-07-29T10:55:39;3.33;;;2.83;;
49183;SDS011;35021;49.214;12.270;2022-07-29T11:00:48;3.92;;;2.78;;
49183;SDS011;35021;49.214;12.270;2022-07-29T11:06:16;2.78;;;2.55;;
49183;SDS011;35021;49.214;12.270;2022-07-29T11:09:15;3.58;;;2.70;;
49183;SDS011;35021;49.214;12.270;2022-07-29T11:11:45;3.60;;;2.67;;
49183;SDS011;35021;49.214;12.270;2022-07-29T11:14:17;2.75;;;2.55;;
49183;SDS011;35021;49.214;12.270;2022-07-29T11:17:13;3.08;;;2.80;;
49183;SDS011;35021;49.214;12.270;2022-07-29T11:19:41;3.50;;;2.75;;
49183;SDS011;35021;49.214;12.270;2022-07-29T11:22:38;3.13;;;2.72;;
49183;SDS011;35021;49.214;12.270;2022-07-29T11:25:14;3.07;;;2.80;;
49183;SDS011;35021;49.214;12.270;2022-07-29T11:27:43;2.75;;;2.50;;
49183;SDS011;35021;49.214;12.270;2022-07-29T11:30:11;3.25;;;2.60;;
49183;SDS011;35021;49.214;12.270;2022-07-29T11:32:41;3.38;;;2.83;;
49183;SDS011;35021;49.214;12.270;2022-07-29T11:35:18;3.70;;;3.40;;
49183;SDS011;35021;49.214;12.270;2022-07-29T11:43:56;3.17;;;2.60;;
49183;SDS011;35021;49.214;12.270;2022-07-29T11:46:43;2.72;;;2.40;;
49183;SDS011;35021;49.214;12.270;2022-07-29T11:49:18;4.82;;;3.03;;
49183;SDS011;35021;49.214;12.270;2022-07-29T11:51:58;3.22;;;2.90;;
49183;SDS011;35021;49.214;12.270;2022-07-29T11:54:33;3.00;;;2.80;;
49183;SDS011;35021;49.214;12.270;2022-07-29T11:57:21;3.83;;;3.03;;
49183;SDS011;35021;49.214;12.270;2022-07-29T12:00:05;3.22;;;2.92;;
49183;SDS011;35021;49.214;12.270;2022-07-29T12:02:59;2.95;;;2.65;;
49183;SDS011;35021;49.214;12.270;2022-07-29T12:05:33;3.42;;;3.08;;
49183;SDS011;35021;49.214;12.270;2022-07-29T12:08:06;3.85;;;3.22;;
49183;SDS011;35021;49.214;12.270;2022-07-29T12:10:38;3.40;;;3.10;;
49183;SDS011;35021;49.214;12.270;2022-07-29T12:13:07;3.20;;;2.92;;
49183;SDS011;35021;49.214;12.270;2022-07-29T12:15:35;3.10;;;2.78;;
49183;SDS011;35021;49.214;12.270;2022-07-29T12:18:13;3.00;;;2.80;;
49183;SDS011;35021;49.214;12.270;2022-07-29T12:20:43;4.13;;;3.08;;
49183;SDS011;35021;49.214;12.270;2022-07-29T12:23:11;3.00;;;2.70;;
49183;SDS011;35021;49.214;12.270;2022-07-29T12:25:39;3.42;;;3.10;;
49183;SDS011;35021;49.214;12.270;2022-07-29T12:28:11;2.95;;;2.63;;
49183;SDS011;35021;49.214;12.270;2022-07-29T12:30:52;3.40;;;2.70;;
49183;SDS011;35021;49.214;12.270;2022-07-29T12:33:20;2.97;;;2.63;;
49183;SDS011;35021;49.214;12.270;2022-07-29T12:36:02;5.38;;;2.58;;
49183;SDS011;35021;49.214;12.270;2022-07-29T12:38:37;2.80;;;2.50;;
49183;SDS011;35021;49.214;12.270;2022-07-29T12:41:06;2.75;;;2.55;;
49183;SDS011;35021;49.214;12.270;2022-07-29T12:43:34;4.53;;;2.80;;
49183;SDS011;35021;49.214;12.270;2022-07-29T12:46:11;3.13;;;2.83;;
49183;SDS011;35021;49.214;12.270;2022-07-29T12:48:41;5.15;;;2.92;;
49183;SDS011;35021;49.214;12.270;2022-07-29T12:51:09;3.35;;;3.05;;
49183;SDS011;35021;49.214;12.270;2022-07-29T12:53:38;3.13;;;2.83;;
49183;SDS011;35021;49.214;12.270;2022-07-29T12:56:09;2.88;;;2.60;;
49183;SDS011;35021;49.214;12.270;2022-07-29T12:59:11;2.70;;;2.50;;
49183;SDS011;35021;49.214;12.270;2022-07-29T13:01:45;3.08;;;2.47;;
49183;SDS011;35021;49.214;12.270;2022-07-29T13:04:25;2.85;;;2.55;;
49183;SDS011;35021;49.214;12.270;2022-07-29T13:07:00;3.15;;;2.60;;
49183;SDS011;35021;49.214;12.270;2022-07-29T13:14:42;2.47;;;2.28;;
49183;SDS011;35021;49.214;12.270;2022-07-29T13:17:18;2.40;;;2.20;;
49183;SDS011;35021;49.214;12.270;2022-07-29T13:19:49;2.40;;;2.20;;
49183;SDS011;35021;49.214;12.270;2022-07-29T13:22:34;2.80;;;2.23;;
49183;SDS011;35021;49.214;12.270;2022-07-29T13:25:02;3.22;;;2.30;;
49183;SDS011;35021;49.214;12.270;2022-07-29T13:27:31;2.42;;;1.90;;
49183;SDS011;35021;49.214;12.270;2022-07-29T13:30:00;2.60;;;2.08;;
49183;SDS011;35021;49.214;12.270;2022-07-29T13:32:29;3.10;;;2.20;;
49183;SDS011;35021;49.214;12.270;2022-07-29T13:34:57;2.20;;;2.00;;
49183;SDS011;35021;49.214;12.270;2022-07-29T13:37:27;2.50;;;1.88;;
49183;SDS011;35021;49.214;12.270;2022-07-29T13:39:57;2.50;;;2.30;;
49183;SDS011;35021;49.214;12.270;2022-07-29T13:42:23;3.78;;;2.08;;
49183;SDS011;35021;49.214;12.270;2022-07-29T13:44:53;1.95;;;1.70;;
49183;SDS011;35021;49.214;12.270;2022-07-29T13:47:20;1.90;;;1.70;;
49183;SDS011;35021;49.214;12.270;2022-07-29T13:49:58;2.20;;;2.00;;
49183;SDS011;35021;49.214;12.270;2022-07-29T13:52:26;2.30;;;2.10;;
49183;SDS011;35021;49.214;12.270;2022-07-29T13:54:53;2.00;;;1.80;;
49183;SDS011;35021;49.214;12.270;2022-07-29T13:57:20;2.75;;;2.20;;
49183;SDS011;35021;49.214;12.270;2022-07-29T13:59:47;2.30;;;2.05;;
49183;SDS011;35021;49.214;12.270;2022-07-29T14:02:19;2.25;;;1.80;;
49183;SDS011;35021;49.214;12.270;2022-07-29T14:04:50;2.15;;;1.90;;
49183;SDS011;35021;49.214;12.270;2022-07-29T14:07:18;2.00;;;1.80;;
49183;SDS011;35021;49.214;12.270;2022-07-29T14:09:47;2.17;;;1.70;;
49183;SDS011;35021;49.214;12.270;2022-07-29T14:12:14;1.75;;;1.65;;
49183;SDS011;35021;49.214;12.270;2022-07-29T14:14:41;1.95;;;1.75;;
49183;SDS011;35021;49.214;12.270;2022-07-29T14:17:09;2.00;;;1.73;;
49183;SDS011;35021;49.214;12.270;2022-07-29T14:19:36;1.70;;;1.60;;
49183;SDS011;35021;49.214;12.270;2022-07-29T14:22:05;2.08;;;1.70;;
49183;SDS011;35021;49.214;12.270;2022-07-29T14:24:39;2.08;;;1.73;;
49183;SDS011;35021;49.214;12.270;2022-07-29T14:27:08;3.25;;;1.85;;
49183;SDS011;35021;49.214;12.270;2022-07-29T14:29:35;2.00;;;1.80;;
49183;SDS011;35021;49.214;12.270;2022-07-29T14:32:04;2.33;;;2.00;;
49183;SDS011;35021;49.214;12.270;2022-07-29T14:34:33;1.92;;;1.63;;
49183;SDS011;35021;49.214;12.270;2022-07-29T14:37:02;2.63;;;1.83;;
49183;SDS011;35021;49.214;12.270;2022-07-29T14:39:32;2.25;;;2.05;;
49183;SDS011;35021;49.214;12.270;2022-07-29T14:42:04;2.63;;;1.65;;
49183;SDS011;35021;49.214;12.270;2022-07-29T14:44:31;1.88;;;1.70;;
49183;SDS011;35021;49.214;12.270;2022-07-29T14:46:58;3.10;;;1.50;;
49183;SDS011;35021;49.214;12.270;2022-07-29T14:49:33;1.80;;;1.70;;
49183;SDS011;35021;49.214;12.270;2022-07-29T14:52:00;3.03;;;1.77;;
49183;SDS011;35021;49.214;12.270;2022-07-29T14:54:27;2.33;;;1.60;;
49183;SDS011;35021;49.214;12.270;2022-07-29T14:56:54;3.10;;;1.80;;
49183;SDS011;35021;49.214;12.270;2022-07-29T14:59:23;1.90;;;1.70;;
49183;SDS011;35021;49.214;12.270;2022-07-29T15:01:51;1.80;;;1.70;;
49183;SDS011;35021;49.214;12.270;2022-07-29T15:04:18;2.00;;;1.80;;
49183;SDS011;35021;49.214;12.270;2022-07-29T15:06:45;2.50;;;1.70;;
49183;SDS011;35021;49.214;12.270;2022-07-29T15:09:12;2.03;;;1.80;;
49183;SDS011;35021;49.214;12.270;2022-07-29T15:11:39;1.80;;;1.50;;
49183;SDS011;35021;49.214;12.270;2022-07-29T15:14:06;2.10;;;1.90;;
49183;SDS011;35021;49.214;12.270;2022-07-29T15:16:35;1.80;;;1.50;;
49183;SDS011;35021;49.214;12.270;2022-07-29T15:19:11;1.90;;;1.65;;
49183;SDS011;35021;49.214;12.270;2022-07-29T15:21:38;2.25;;;1.60;;
49183;SDS011;35021;49.214;12.270;2022-07-29T15:24:14;1.88;;;1.70;;
49183;SDS011;35021;49.214;12.270;2022-07-29T15:26:45;2.75;;;1.52;;
49183;SDS011;35021;49.214;12.270;2022-07-29T15:29:13;3.58;;;1.80;;
49183;SDS011;35021;49.214;12.270;2022-07-29T15:31:40;2.00;;;1.80;;
49183;SDS011;35021;49.214;12.270;2022-07-29T15:34:07;2.65;;;1.40;;
49183;SDS011;35021;49.214;12.270;2022-07-29T15:36:34;2.25;;;1.70;;
49183;SDS011;35021;49.214;12.270;2022-07-29T15:39:19;2.95;;;1.80;;